Date,TemperatureHighF,TemperatureAvgF,TemperatureLowF,DewpointHighF,DewpointAvgF,DewpointLowF,HumidityHigh,HumidityAvg,HumidityLow,PressureMaxIn,PressureMinIn,WindSpeedMaxMPH,WindSpeedAvgMPH,GustSpeedMaxMPH,PrecipitationSumIn
2013-1-1,51.6,38.9,34.3,42.1,36.3,33.1,96,91,65,30.29,30.21,3,0,3,0.00
2013-1-2,54.2,38.9,30.1,43.5,35.0,28.8,96,87,57,30.24,30.10,2,0,4,0.00
2013-1-3,50.6,41.5,34.4,45.5,38.3,31.8,94,88,74,30.28,30.13,2,0,3,0.00
2013-1-4,53.5,42.8,37.2,46.6,40.2,35.6,96,91,75,30.29,30.19,3,0,3,0.00
2013-1-5,46.4,40.9,35.4,45.0,39.4,34.1,96,95,90,30.22,30.10,1,0,4,0.28
2013-1-6,49.3,42.2,36.5,46.2,40.5,35.2,96,94,86,30.23,30.10,6,0,7,0.00
2013-1-7,53.9,44.1,36.9,50.2,42.5,35.6,96,94,87,30.31,30.22,5,0,12,0.00
2013-1-8,55.0,48.2,45.8,49.1,46.4,44.7,96,94,80,30.26,30.13,3,0,10,0.00
2013-1-9,47.7,45.3,40.4,46.6,44.0,38.3,96,95,91,30.16,30.03,7,0,10,0.19
2013-1-10,44.3,36.9,31.9,40.2,34.9,30.6,96,92,80,30.25,30.09,4,0,7,0.12
2013-1-11,46.3,36.8,30.5,41.7,34.4,29.1,95,91,80,30.27,30.19,4,0,6,0.01
2013-1-12,45.5,36.8,29.2,37.5,33.0,27.7,95,87,64,30.27,30.15,1,0,9,0.00
2013-1-13,46.1,33.6,27.2,35.9,30.0,25.7,95,88,59,30.26,30.19,2,0,3,0.00
2013-1-14,49.4,36.5,28.6,39.9,32.1,26.8,94,85,56,30.41,30.26,3,0,5,0.01
2013-1-15,51.3,37.0,29.9,44.3,34.2,28.4,95,90,62,30.48,30.40,3,0,4,0.00
2013-1-16,52.2,38.1,30.7,45.4,35.9,29.4,96,92,75,30.44,30.29,3,0,4,0.00
2013-1-17,55.9,38.7,30.5,46.5,35.4,29.2,96,89,63,30.28,30.18,1,0,2,0.00
2013-1-18,61.0,40.6,32.5,49.3,37.5,31.2,96,90,52,30.23,30.14,0,0,0,0.00
2013-1-19,62.7,42.5,33.5,47.7,37.6,32.0,95,85,49,30.25,30.16,0,0,1,0.00
2013-1-20,68.4,44.8,34.0,41.1,36.0,29.2,94,75,25,30.22,30.11,0,0,4,0.00
2013-1-21,71.5,46.0,32.9,45.3,36.3,30.8,93,73,29,30.18,30.06,5,0,5,0.00
2013-1-22,67.4,50.0,38.3,40.2,35.3,30.4,87,59,31,30.09,29.94,1,0,2,0.00
2013-1-23,58.8,53.8,47.2,47.3,38.1,30.5,94,59,34,30.00,29.87,4,2,19,0.25
2013-1-24,57.0,51.4,48.0,53.8,49.6,46.6,95,94,87,30.19,30.07,2,0,3,0.00
2013-1-25,58.2,51.8,49.3,54.4,49.6,47.9,96,92,77,30.19,30.08,1,0,3,0.00
2013-1-26,51.2,45.8,39.4,47.7,43.1,37.8,96,91,72,30.12,30.03,10,0,11,0.04
2013-1-27,51.1,41.7,34.6,40.8,37.4,33.1,95,85,66,30.23,30.12,4,1,13,0.00
2013-1-28,51.7,43.2,34.7,45.1,40.2,33.2,95,89,75,30.36,30.21,5,1,7,0.02
2013-1-29,53.8,44.6,38.0,43.8,41.0,36.2,94,88,68,30.42,30.35,6,0,10,0.00
2013-1-30,60.9,41.4,30.6,45.7,37.5,29.1,100,87,55,30.39,30.28,3,0,4,0.00
2013-1-31,59.3,42.3,33.6,47.3,38.3,32.1,95,87,54,30.30,30.21,5,0,5,0.00
2013-2-1,60.1,41.3,36.5,47.1,38.2,35.1,100,90,59,30.20,30.16,2,0,3,0.00
2013-2-2,36.9,36.9,36.9,35.6,35.6,35.6,95,95,95,30.20,30.20,0,0,0,0.00
2013-2-3,45.4,38.1,36.9,42.9,36.6,35.6,95,94,91,30.21,30.18,0,0,0,0.00
2013-2-4,51.4,44.3,41.0,47.0,42.2,39.7,96,92,84,30.18,30.10,2,0,4,0.00
2013-2-5,53.3,45.9,41.0,48.2,43.1,39.2,94,90,80,30.20,30.09,5,0,5,0.00
2013-2-6,53.3,40.7,32.8,46.1,37.6,31.3,96,89,66,30.23,30.15,4,0,7,0.00
2013-2-7,49.1,43.5,38.7,44.4,41.3,36.9,96,92,77,30.14,30.03,5,0,10,0.36
2013-2-8,49.9,37.8,31.4,42.7,35.0,30.0,96,90,70,30.08,29.99,8,0,10,0.00
2013-2-9,57.1,39.0,30.8,38.4,33.5,29.2,94,83,43,30.10,30.05,2,0,5,0.00
2013-2-10,56.9,40.5,30.7,39.7,34.3,28.9,95,81,44,30.12,30.06,3,0,5,0.00
2013-2-11,61.1,42.5,32.2,46.2,37.3,30.4,95,83,55,30.21,30.10,3,0,5,0.00
2013-2-12,53.0,40.7,33.2,45.5,37.8,31.7,95,90,74,30.39,30.22,3,0,5,0.00
2013-2-13,59.7,42.0,32.0,47.0,38.6,30.5,95,88,60,30.37,30.26,4,0,6,0.00
2013-2-14,75.0,46.9,35.8,52.3,40.9,34.2,96,82,40,30.27,30.15,2,0,3,0.00
2013-2-15,70.0,48.7,38.6,46.6,40.4,37.0,95,77,37,30.27,30.21,2,0,4,0.00
2013-2-16,61.9,45.3,37.0,48.4,40.9,35.2,94,86,59,30.26,30.12,3,0,6,0.00
2013-2-17,57.6,41.5,32.8,44.0,37.1,31.3,95,86,56,30.12,30.03,3,0,5,0.00
2013-2-18,49.2,39.2,32.2,40.8,35.5,30.4,95,87,65,30.05,29.98,6,0,7,0.00
2013-2-19,45.6,40.4,34.8,40.8,37.1,32.7,95,88,70,29.97,29.78,9,1,13,0.00
2013-2-20,53.2,41.6,33.3,41.1,36.6,31.5,94,83,61,30.12,29.91,12,1,13,0.00
2013-2-21,56.3,43.0,36.8,40.3,37.7,35.0,94,83,52,30.23,30.13,4,0,11,0.00
2013-2-22,53.9,43.0,33.3,44.7,38.3,31.5,94,84,66,30.30,30.24,5,0,8,0.00
2013-2-23,51.6,44.2,38.6,42.8,38.0,35.2,93,80,56,30.34,30.23,13,1,17,0.00
2013-2-24,57.7,42.7,31.4,40.3,35.4,29.4,94,77,50,30.32,30.22,6,0,7,0.00
2013-2-25,58.6,43.9,35.2,46.9,38.5,33.4,94,82,54,30.33,30.25,5,0,11,0.00
2013-2-26,58.2,41.7,29.9,42.8,35.0,27.9,94,79,47,30.29,30.21,3,0,4,0.00
2013-2-27,65.5,42.8,31.5,46.1,36.8,29.4,94,82,34,30.41,30.26,4,0,10,0.00
2013-2-28,62.9,51.2,45.8,54.6,47.8,44.2,95,88,68,30.48,30.39,5,0,6,0.00
2013-3-1,69.8,52.7,45.8,53.8,47.6,44.5,95,84,52,30.48,30.28,5,0,6,0.00
2013-3-2,60.9,47.1,40.6,52.7,44.1,38.7,95,90,71,30.27,30.09,2,0,4,0.00
2013-3-3,60.6,49.0,45.2,51.5,45.1,42.6,95,87,66,30.11,30.06,5,0,6,0.00
2013-3-4,53.5,44.4,35.8,45.5,41.1,33.5,95,89,66,30.15,30.07,4,0,6,0.00
2013-3-5,50.8,41.5,33.6,46.2,39.0,32.1,95,91,74,30.06,29.67,55,2,113,0.52
2013-3-6,50.9,44.4,38.1,47.4,42.2,36.3,95,92,79,30.03,29.68,68,2,113,0.54
2013-3-7,54.4,41.8,35.5,44.6,37.9,33.9,95,87,59,30.00,29.92,3,0,5,0.00
2013-3-8,55.4,42.5,30.3,44.1,38.0,28.5,100,85,62,30.03,29.91,8,1,12,0.00
2013-3-9,67.4,46.3,35.2,47.7,40.1,33.4,95,81,41,30.36,30.10,3,0,6,0.00
2013-3-10,57.9,46.9,34.4,48.0,41.5,32.9,95,82,66,30.38,30.27,0,0,3,0.00
2013-3-11,68.8,47.5,37.2,52.0,41.6,35.6,95,82,54,30.28,30.16,3,0,7,0.00
2013-3-12,67.0,48.7,40.2,52.8,44.2,38.6,95,86,56,30.18,30.12,4,0,6,0.00
2013-3-13,77.4,50.2,38.7,57.7,44.8,37.1,96,84,46,30.19,30.10,4,0,5,0.00
2013-3-14,67.2,47.4,40.6,51.2,43.0,39.0,95,86,53,30.22,30.11,3,0,6,0.00
2013-3-15,69.8,49.1,41.0,51.8,44.8,38.9,95,86,52,30.20,30.11,4,0,12,0.00
2013-3-16,65.4,49.8,40.9,50.8,44.3,39.3,95,83,50,30.17,30.11,5,0,11,0.00
2013-3-17,62.1,48.1,40.9,45.0,42.1,37.3,94,81,50,30.21,30.12,5,0,11,0.00
2013-3-18,62.1,45.7,33.9,46.1,38.5,31.9,94,78,55,30.15,30.11,4,0,6,0.00
2013-3-19,51.3,45.6,39.7,49.3,42.7,37.7,94,90,79,30.14,30.03,2,0,9,0.14
2013-3-20,56.9,50.5,46.7,54.3,49.0,45.1,95,94,88,30.11,29.98,3,1,9,0.26
2013-3-21,59.2,44.7,37.0,42.3,38.8,35.4,95,81,49,30.21,30.12,11,1,12,0.00
2013-3-22,59.3,45.3,37.0,39.5,36.0,30.9,90,72,45,30.20,30.15,6,1,14,0.00
2013-3-23,62.8,44.2,32.5,42.3,36.0,30.2,93,76,42,30.18,30.11,9,0,9,0.00
2013-3-24,66.2,45.0,33.2,47.1,38.3,31.3,95,80,47,30.13,30.03,4,0,8,0.00
2013-3-25,50.6,43.9,36.7,43.0,40.0,34.6,93,86,72,30.05,29.99,5,0,7,0.00
2013-3-26,74.6,47.9,38.5,50.5,41.2,36.4,94,80,41,30.02,29.96,0,0,2,0.02
2013-3-27,62.9,51.4,47.2,52.7,46.9,43.5,94,85,63,29.99,29.93,0,0,0,0.00
2013-3-28,65.1,53.5,48.3,52.9,48.9,45.7,94,85,62,30.09,29.99,0,0,0,0.00
2013-3-29,79.2,57.2,47.5,57.7,50.1,44.0,95,80,46,30.09,30.02,0,0,0,0.00
2013-3-30,59.0,52.8,48.5,54.4,49.1,46.3,93,87,74,30.05,30.00,0,0,0,0.00
2013-3-31,61.8,53.4,49.3,56.6,51.4,47.6,96,93,75,30.04,29.98,0,0,0,0.00
2013-4-1,57.8,29.2,-13.0,55.9,-4.4,-99.9,100,55,4,30.21,30.02,0,0,0,0.00
2013-4-2,61.9,50.9,46.1,53.8,47.8,43.3,94,89,69,30.21,30.12,0,0,0,0.00
2013-4-3,66.3,50.2,45.0,55.2,46.4,43.6,95,88,56,30.17,29.99,2,0,2,0.03
2013-4-4,57.0,51.2,47.5,55.0,49.7,45.6,96,94,90,30.06,29.92,3,1,6,0.73
2013-4-5,57.3,53.2,51.3,53.2,50.9,49.6,96,92,80,30.18,30.08,4,1,6,0.07
2013-4-6,57.2,52.7,50.7,54.8,50.4,49.1,96,92,82,30.19,30.11,4,0,5,0.20
2013-4-7,55.1,50.7,44.4,51.5,48.1,42.2,96,91,73,30.15,29.84,5,1,21,0.64
2013-4-8,56.3,48.2,42.2,43.1,40.2,35.6,91,74,57,30.11,29.87,12,3,17,0.00
2013-4-9,63.8,48.8,38.3,46.9,41.7,36.5,95,78,51,30.20,30.13,6,1,11,0.00
2013-4-10,66.8,50.3,41.2,52.3,45.3,39.3,94,84,58,30.27,30.17,9,1,13,0.00
2013-4-11,59.0,49.6,44.5,46.9,44.2,41.9,94,83,58,30.17,29.94,5,1,12,0.00
2013-4-12,59.3,47.2,38.4,48.0,42.2,36.6,95,84,62,29.97,29.93,10,1,13,0.00
2013-4-13,55.8,46.8,40.5,45.5,41.1,38.0,94,81,60,30.04,29.95,9,2,18,0.00
2013-4-14,55.8,46.0,39.7,42.4,38.6,35.8,92,76,53,30.03,29.90,6,1,10,0.00
2013-4-15,51.9,45.0,38.4,41.6,38.5,36.3,93,79,59,30.01,29.91,5,2,21,0.00
2013-4-16,56.9,45.4,37.7,41.7,37.3,35.0,90,75,48,30.22,30.05,7,2,16,0.00
2013-4-17,60.7,46.2,34.2,42.2,38.0,32.1,94,76,46,30.33,30.24,5,1,9,0.00
2013-4-18,64.5,48.6,37.1,47.3,40.8,34.7,94,77,49,30.32,30.25,3,0,9,0.00
2013-4-19,67.2,49.8,39.5,50.9,43.7,37.4,94,81,52,30.29,30.21,6,1,15,0.00
2013-4-20,66.5,52.5,42.9,48.0,44.3,41.0,94,76,47,30.21,30.07,6,1,12,0.00
2013-4-21,73.9,52.5,39.5,49.2,42.5,37.4,94,73,36,30.10,30.00,7,1,10,0.00
2013-4-22,81.4,58.4,43.6,54.4,45.0,40.9,92,67,29,30.01,29.87,4,0,7,0.00
2013-4-23,77.4,58.8,46.5,45.9,40.8,31.4,84,57,22,29.95,29.86,6,1,10,0.00
2013-4-24,55.4,46.8,39.0,47.3,42.8,37.1,94,86,72,29.94,29.83,6,1,6,0.00
2013-4-25,56.2,48.9,45.3,48.2,44.8,42.8,91,86,73,30.15,29.95,5,1,11,0.00
2013-4-26,56.0,49.3,46.4,49.2,45.9,44.2,93,88,76,30.25,30.14,3,0,6,0.00
2013-4-27,59.4,48.2,43.8,49.9,45.1,42.5,95,89,69,30.25,30.13,5,1,7,0.00
2013-4-28,74.3,52.4,38.6,50.2,43.2,37.0,95,75,38,30.14,29.96,6,1,10,0.00
2013-4-29,68.2,56.4,48.7,50.9,46.3,42.4,80,70,50,29.98,29.92,8,1,13,0.00
2013-4-30,62.8,52.7,45.9,43.6,40.6,37.6,85,66,42,29.97,29.91,5,2,13,0.00
2013-5-1,85.5,59.3,39.8,47.4,39.2,32.5,83,56,16,30.07,29.96,3,1,6,0.00
2013-5-2,85.9,63.0,48.1,42.2,38.0,27.3,72,45,14,30.15,30.08,4,0,7,0.00
2013-5-3,84.4,61.3,45.5,50.8,41.4,36.8,77,52,22,30.09,29.81,4,0,6,0.00
2013-5-4,86.8,60.9,49.5,51.4,45.4,35.4,85,62,17,29.79,29.52,5,1,7,0.00
2013-5-5,64.1,53.4,45.4,49.9,46.1,43.2,94,78,54,29.72,29.54,13,2,15,0.00
2013-5-6,63.3,55.3,49.5,57.0,50.6,45.8,92,84,64,29.91,29.81,2,0,3,0.06
2013-5-7,64.8,56.1,50.9,54.8,52.2,48.7,94,87,67,30.05,29.96,4,0,6,0.00
2013-5-8,56.3,50.8,47.8,49.6,47.4,46.0,94,88,76,30.16,30.04,4,0,6,0.00
2013-5-9,55.6,50.6,49.1,51.1,47.2,46.0,91,88,80,30.19,30.14,6,0,7,0.00
2013-5-10,62.8,50.9,47.8,53.3,47.9,46.2,95,90,70,30.22,30.18,4,1,7,0.00
2013-5-11,70.5,53.5,45.6,55.0,48.5,44.3,95,84,57,30.18,30.08,5,0,6,0.00
2013-5-12,70.3,57.7,49.7,57.0,52.3,48.0,95,83,57,30.18,30.09,5,0,10,0.00
2013-5-13,64.5,55.3,50.4,55.6,50.9,47.0,94,86,66,30.15,30.04,6,1,12,0.00
2013-5-14,65.2,53.6,43.9,49.5,46.2,42.0,95,78,54,30.06,30.01,7,1,13,0.00
2013-5-15,64.2,50.9,41.9,48.6,44.2,39.5,93,80,53,30.11,30.05,7,1,15,0.00
2013-5-16,61.2,54.5,51.4,53.0,50.3,47.9,94,86,65,30.08,30.00,4,1,7,0.01
2013-5-17,62.2,52.8,44.0,49.4,46.6,41.8,94,81,58,30.11,30.00,5,1,12,0.00
2013-5-18,65.2,52.2,41.7,51.4,46.1,39.8,94,81,53,30.22,30.11,6,1,13,0.00
2013-5-19,69.3,54.7,46.0,49.4,46.3,43.9,93,76,47,30.21,30.06,5,1,10,0.00
2013-5-20,74.9,55.2,43.4,53.3,46.6,40.9,93,75,45,30.07,30.00,2,1,15,0.00
2013-5-21,59.3,51.1,45.6,47.0,44.5,39.1,89,79,61,30.12,30.01,10,2,16,0.00
2013-5-22,56.8,46.7,39.3,42.5,38.9,35.5,88,75,53,30.15,30.01,10,1,16,0.00
2013-5-23,59.3,49.5,43.8,44.1,41.7,39.5,90,76,54,30.09,29.99,5,1,15,0.00
2013-5-24,58.7,48.4,40.2,45.5,41.8,38.0,94,79,57,30.07,30.02,10,1,14,0.00
2013-5-25,60.4,50.8,39.7,48.4,44.6,37.6,94,80,60,30.09,30.01,8,1,12,0.00
2013-5-26,64.3,54.6,48.5,54.2,49.9,45.6,94,85,64,30.16,30.07,6,1,7,0.03
2013-5-27,55.9,52.3,46.9,54.2,50.5,44.5,95,93,91,30.15,29.99,3,0,5,0.54
2013-5-28,64.2,55.9,52.7,56.7,52.6,50.6,96,89,65,30.02,29.96,4,0,7,0.07
2013-5-29,62.1,54.0,47.9,53.9,49.9,45.7,95,86,67,30.04,29.93,6,1,12,0.05
2013-5-30,63.1,52.6,44.6,49.4,45.8,43.0,95,79,58,30.08,30.01,5,1,12,0.00
2013-5-31,69.2,55.8,44.7,50.6,46.1,42.5,93,72,47,30.11,30.03,15,1,15,0.00
2013-6-1,74.0,57.5,44.2,51.5,46.9,41.7,92,70,42,30.05,29.91,6,1,10,0.00
2013-6-2,69.0,56.7,49.5,53.2,49.6,47.3,92,78,55,29.92,29.71,3,1,14,0.00
2013-6-3,59.3,51.2,46.8,51.8,47.8,44.7,94,88,75,29.89,29.69,6,1,6,0.00
2013-6-4,58.4,51.4,48.1,52.0,48.5,46.6,95,90,76,29.98,29.86,5,1,7,0.00
2013-6-5,62.0,52.9,48.7,52.6,48.8,47.0,94,87,68,30.01,29.94,4,1,5,0.02
2013-6-6,61.1,51.2,46.3,53.4,48.0,44.9,95,89,71,29.95,29.89,5,0,5,0.00
2013-6-7,86.4,60.5,43.5,60.7,50.0,41.9,96,73,38,29.90,29.78,3,0,10,0.00
2013-6-8,77.8,61.9,51.5,59.1,52.4,48.4,93,73,48,29.79,29.72,7,1,7,0.00
2013-6-9,58.5,54.1,51.4,52.4,50.7,49.2,93,88,80,29.89,29.79,4,0,6,0.00
2013-6-10,59.0,53.1,50.5,52.5,50.2,48.7,95,90,76,29.97,29.83,4,0,5,0.01
2013-6-11,66.9,56.1,48.9,51.5,48.6,45.2,92,77,53,30.01,29.95,5,0,11,0.00
2013-6-12,64.1,53.1,46.8,49.5,46.1,43.9,91,78,58,30.10,29.98,5,1,15,0.00
2013-6-13,62.3,53.7,46.6,49.4,46.3,43.8,91,77,61,30.18,30.09,6,1,16,0.00
2013-6-14,71.8,56.0,42.8,51.1,46.0,40.4,93,72,43,30.09,29.89,5,1,11,0.00
2013-6-15,66.4,54.3,45.5,52.7,48.3,43.5,94,81,61,29.98,29.88,6,1,7,0.00
2013-6-16,69.4,56.9,48.5,54.7,49.6,46.6,93,78,53,30.13,30.03,5,1,8,0.00
2013-6-17,67.8,56.2,49.5,56.0,51.4,47.3,92,84,66,30.13,30.07,6,1,10,0.00
2013-6-18,63.7,56.2,50.9,52.6,50.5,48.4,92,82,62,30.07,30.03,10,1,10,0.00
2013-6-19,64.7,54.9,47.2,50.5,48.1,45.3,94,79,55,30.11,30.04,6,1,10,0.00
2013-6-20,65.6,53.4,43.0,50.2,46.7,40.8,94,80,55,30.10,30.03,9,1,14,0.00
2013-6-21,70.4,53.1,42.7,53.1,46.0,40.8,94,79,49,30.04,30.00,7,1,12,0.00
2013-6-22,70.8,54.8,43.1,56.7,48.0,40.9,93,80,47,30.01,29.93,5,1,12,0.00
2013-6-23,63.7,57.9,55.3,60.5,55.8,53.6,95,93,85,29.91,29.80,3,0,5,0.03
2013-6-24,60.3,55.8,53.6,56.4,53.9,52.2,95,93,85,29.84,29.78,2,0,7,0.22
2013-6-25,62.9,59.1,56.2,61.4,57.9,54.8,96,96,95,29.93,29.81,3,1,7,0.86
2013-6-26,72.0,63.7,59.6,64.8,60.9,57.8,96,91,75,30.05,29.92,5,0,5,0.04
2013-6-27,76.6,64.2,57.1,64.6,58.9,56.0,96,84,59,30.12,30.04,4,0,6,0.00
2013-6-28,81.2,64.5,54.2,65.0,57.3,52.5,96,80,48,30.08,29.97,5,0,12,0.00
2013-6-29,85.9,65.1,54.5,61.2,55.3,52.3,95,74,39,29.96,29.89,10,1,11,0.00
2013-6-30,77.8,61.5,51.1,60.1,53.9,49.2,94,78,51,29.90,29.84,5,1,9,0.00
2013-7-1,83.3,61.2,50.9,62.6,54.1,49.0,95,80,44,29.89,29.84,5,0,6,0.00
2013-7-2,84.6,63.9,55.4,63.5,56.1,52.5,92,78,47,29.90,29.82,2,0,5,0.00
2013-7-3,86.5,63.2,54.1,65.6,56.0,52.1,94,79,49,29.91,29.77,3,0,11,0.00
2013-7-4,78.5,65.4,55.3,60.5,54.9,47.2,95,73,38,29.86,29.77,7,1,14,0.01
2013-7-5,69.1,57.6,51.7,54.2,50.3,47.9,91,78,57,29.83,29.74,4,1,11,0.00
2013-7-6,65.8,56.3,48.3,53.6,49.8,46.1,94,80,61,29.79,29.73,4,1,7,0.00
2013-7-7,61.2,52.8,48.5,53.1,49.2,46.8,94,88,74,29.85,29.76,4,0,5,0.00
2013-7-8,61.8,53.8,48.0,53.8,50.1,46.6,95,88,75,29.98,29.84,4,1,6,0.00
2013-7-9,68.3,54.9,46.1,57.0,50.0,44.7,98,85,63,30.04,29.96,3,0,5,0.00
2013-7-10,66.1,51.5,44.6,53.8,47.5,43.0,95,87,63,29.99,29.93,5,1,7,0.00
2013-7-11,63.6,52.3,47.1,54.5,48.8,45.7,95,89,69,29.95,29.87,5,1,6,0.00
2013-7-12,65.2,53.9,45.7,54.3,48.7,43.5,95,84,63,29.94,29.89,4,0,5,0.00
2013-7-13,67.4,53.6,44.6,54.4,47.4,42.7,95,81,57,29.96,29.90,6,1,7,0.00
2013-7-14,61.5,50.6,44.8,53.1,47.3,42.6,95,89,73,30.01,29.92,5,1,6,0.00
2013-7-15,55.3,50.5,47.6,51.0,48.4,45.7,95,93,85,29.93,29.85,4,0,6,0.00
2013-7-16,63.1,53.7,49.2,55.0,50.7,47.8,95,90,73,30.03,29.86,5,0,7,0.03
2013-7-17,66.3,56.6,51.5,55.7,52.6,49.5,93,87,68,30.11,30.04,3,0,7,0.00
2013-7-18,67.7,54.1,46.1,57.7,49.6,44.5,95,85,66,30.06,29.96,4,1,5,0.00
2013-7-19,66.9,55.4,49.9,55.6,50.6,47.9,94,85,64,29.97,29.88,4,0,6,0.00
2013-7-20,68.9,56.0,50.1,55.4,50.6,47.5,94,83,60,29.89,29.75,3,0,6,0.00
2013-7-21,63.9,52.7,48.0,52.9,48.8,46.1,95,87,67,29.86,29.75,3,1,5,0.00
2013-7-22,69.1,54.0,47.9,55.0,49.2,46.5,95,85,59,29.98,29.86,3,0,6,0.00
2013-7-23,70.5,55.8,49.7,58.6,51.3,47.2,92,85,66,30.01,29.94,3,0,4,0.00
2013-7-24,76.1,60.4,51.4,58.2,52.6,49.4,94,78,45,29.99,29.93,3,0,5,0.00
2013-7-25,65.4,56.6,50.8,54.1,51.1,47.7,92,82,67,30.01,29.91,3,0,6,0.00
2013-7-26,62.0,52.6,46.3,53.4,49.1,44.7,95,88,73,30.09,30.01,4,0,5,0.00
2013-7-27,61.9,52.3,47.5,53.9,49.5,46.1,95,90,74,30.03,29.88,3,0,6,0.00
2013-7-28,62.2,52.3,48.1,53.8,49.3,46.6,100,90,73,29.89,29.80,3,1,7,0.00
2013-7-29,57.9,52.5,49.7,52.4,50.0,47.8,95,91,82,30.01,29.82,3,0,7,0.00
2013-7-30,60.8,52.9,49.8,53.5,50.1,48.4,95,91,76,30.11,30.01,4,0,5,0.00
2013-7-31,67.3,55.6,49.2,56.1,50.6,47.8,96,84,61,30.09,30.03,4,0,9,0.00
2013-8-1,67.7,56.6,49.4,53.5,50.3,47.4,94,81,58,30.09,30.03,5,1,14,0.00
2013-8-2,70.5,56.5,47.8,55.3,50.6,46.2,94,82,58,30.03,29.93,4,0,6,0.00
2013-8-3,62.0,52.1,47.0,53.4,49.0,44.8,95,89,72,29.97,29.92,4,0,5,0.00
2013-8-4,57.0,51.7,49.2,52.8,49.5,47.8,96,92,82,30.00,29.93,7,1,7,0.00
2013-8-5,57.1,51.5,47.8,51.4,49.1,46.4,95,92,81,30.03,29.97,4,0,5,0.00
2013-8-6,63.5,53.2,49.5,54.3,50.5,48.1,96,91,72,30.04,29.97,5,0,5,0.01
2013-8-7,67.2,57.1,52.8,55.7,52.5,50.3,94,85,64,30.07,30.01,6,1,7,0.01
2013-8-8,62.4,55.5,53.3,53.6,52.0,50.6,93,88,73,30.04,29.97,4,0,6,0.00
2013-8-9,63.8,54.3,50.3,54.9,51.2,48.9,95,90,71,29.99,29.92,4,0,5,0.00
2013-8-10,67.1,56.8,52.0,57.0,52.9,50.3,94,87,69,30.04,29.99,6,0,6,0.00
2013-8-11,71.1,57.3,51.2,60.3,53.1,49.8,96,87,64,30.03,29.97,5,0,5,0.01
2013-8-12,67.5,55.3,45.9,57.5,50.6,44.3,95,85,64,29.99,29.93,5,0,5,0.00
2013-8-13,74.9,56.7,46.8,58.2,49.7,44.9,95,79,51,30.01,29.97,6,0,11,0.00
2013-8-14,74.9,59.1,45.6,62.8,53.4,43.7,95,83,50,30.02,29.97,6,1,10,0.00
2013-8-15,78.9,67.4,61.9,65.7,62.0,59.8,94,84,64,29.97,29.92,5,1,7,0.00
2013-8-16,73.7,64.1,58.0,62.7,59.8,55.1,94,87,68,30.02,29.93,4,0,9,0.00
2013-8-17,74.9,60.7,52.8,59.8,55.0,51.1,95,83,55,30.02,29.91,5,1,7,0.00
2013-8-18,83.0,62.8,51.5,64.1,55.0,49.5,95,78,50,29.90,29.79,3,0,5,0.00
2013-8-19,71.3,62.8,57.6,59.3,56.6,54.8,92,81,66,29.91,29.78,0,0,0,0.00
2013-8-20,69.5,58.9,54.6,59.2,54.9,52.3,93,87,68,29.88,29.82,4,0,7,0.00
2013-8-21,64.8,57.8,55.6,57.4,54.9,53.9,95,90,76,29.94,29.87,2,0,3,0.01
2013-8-22,63.9,57.0,52.9,55.1,53.3,49.9,95,88,72,29.98,29.90,6,0,6,0.00
2013-8-23,68.3,56.9,53.6,56.9,53.2,51.9,94,88,66,29.94,29.86,9,1,11,0.00
2013-8-24,70.8,58.7,51.5,57.9,53.7,50.1,95,85,63,29.89,29.85,4,0,5,0.00
2013-8-25,67.4,59.7,53.7,61.6,56.4,52.0,95,89,78,29.94,29.87,2,0,4,0.04
2013-8-26,70.9,58.5,49.1,57.4,52.6,47.4,96,83,55,30.02,29.94,5,1,7,0.00
2013-8-27,74.7,61.2,54.2,61.2,56.0,52.3,94,84,63,29.95,29.86,5,0,9,0.00
2013-8-28,73.3,63.1,58.7,63.2,59.2,57.0,95,88,70,29.92,29.84,4,1,7,0.00
2013-8-29,74.1,63.7,58.6,63.9,60.0,57.2,96,88,67,30.06,29.93,4,0,6,0.02
2013-8-30,76.9,64.9,58.7,63.6,59.9,56.7,95,85,62,30.07,30.00,9,1,12,0.00
2013-8-31,70.7,59.7,53.8,61.3,56.6,51.5,95,90,71,29.99,29.92,4,0,6,0.00
2013-9-1,76.7,58.9,48.2,60.6,53.8,46.6,95,85,52,29.96,29.91,5,0,6,0.00
2013-9-2,74.0,64.5,58.3,62.8,60.1,55.4,95,86,65,29.94,29.90,4,0,6,0.00
2013-9-3,72.1,61.1,53.7,59.4,55.9,52.0,95,84,62,30.01,29.94,5,1,6,0.00
2013-9-4,73.0,63.8,59.0,59.6,58.0,56.7,93,82,59,30.04,29.98,7,1,11,0.00
2013-9-5,72.6,61.9,54.6,58.7,56.1,52.6,94,82,61,30.04,29.97,5,0,10,0.00
2013-9-6,83.4,62.5,49.1,58.8,52.8,47.4,95,75,37,30.03,29.86,4,0,6,0.00
2013-9-7,84.6,63.3,51.9,60.9,53.6,49.4,91,73,43,29.87,29.82,4,0,4,0.00
2013-9-8,77.2,61.9,50.6,58.3,53.2,48.5,94,76,49,29.87,29.78,4,0,4,0.00
2013-9-9,83.9,64.9,55.1,60.1,53.8,51.2,89,71,36,29.79,29.69,4,0,5,0.00
2013-9-10,65.7,57.9,50.9,58.7,53.9,48.4,94,87,76,29.85,29.69,5,0,5,0.00
2013-9-11,71.2,62.5,59.0,59.8,57.3,55.9,92,84,66,29.97,29.86,4,1,7,0.00
2013-9-12,71.7,60.7,57.2,61.2,56.7,54.4,94,87,66,29.97,29.93,6,0,7,0.00
2013-9-13,64.6,56.0,51.6,56.9,53.4,49.9,95,91,76,29.92,29.82,6,1,7,0.01
2013-9-14,66.8,57.1,53.9,57.9,54.1,52.5,95,90,73,29.84,29.78,5,0,7,0.00
2013-9-15,73.0,62.5,54.6,57.9,54.9,50.8,91,77,58,29.87,29.79,5,1,6,0.00
2013-9-16,70.4,58.8,48.9,57.3,52.4,47.0,95,81,58,29.91,29.83,4,1,9,0.00
2013-9-17,66.6,58.4,51.7,55.7,53.0,49.2,94,83,64,29.96,29.84,6,1,13,0.00
2013-9-18,72.3,56.9,49.2,52.5,49.1,45.7,93,77,49,29.96,29.89,5,0,11,0.00
2013-9-19,72.1,53.5,42.5,53.8,47.0,40.6,94,81,49,29.88,29.82,3,0,10,0.00
2013-9-20,69.3,56.1,46.9,61.4,52.8,44.8,95,89,72,29.83,29.76,4,0,4,0.19
2013-9-21,66.0,58.4,50.9,59.2,55.4,49.2,96,90,71,29.90,29.73,3,0,6,0.58
2013-9-22,65.8,57.3,48.7,57.0,52.4,47.0,95,85,65,30.02,29.90,4,0,9,0.00
2013-9-23,73.5,61.9,56.0,63.2,56.5,51.9,94,83,64,30.03,29.97,4,0,8,0.03
2013-9-24,68.2,58.1,51.8,56.8,52.9,49.8,94,84,61,30.02,29.95,6,1,12,0.00
2013-9-25,63.2,54.7,48.4,51.8,48.4,43.3,95,81,56,29.98,29.91,5,1,13,0.00
2013-9-26,66.0,53.3,44.4,49.5,44.9,41.4,90,75,48,30.03,29.92,10,1,15,0.00
2013-9-27,71.0,52.9,41.9,49.8,43.7,39.8,93,75,35,30.11,30.04,3,0,7,0.00
2013-9-28,69.5,53.1,42.8,56.7,48.4,40.6,94,85,55,30.09,30.04,4,0,6,0.00
2013-9-29,62.8,59.9,57.1,61.4,58.4,55.4,96,95,93,30.05,29.99,3,0,5,0.21
2013-9-30,66.5,60.0,48.8,60.3,56.4,46.6,96,89,59,30.05,29.96,4,1,10,0.31
2013-10-1,64.8,52.6,44.5,51.9,47.5,42.9,95,84,59,30.07,29.99,5,1,14,0.00
2013-10-2,63.2,52.6,43.9,48.1,45.3,41.8,94,78,50,30.11,29.99,6,1,14,0.00
2013-10-3,64.1,54.3,49.2,46.8,43.9,42.0,82,69,50,30.16,30.06,10,2,13,0.00
2013-10-4,78.7,55.1,40.5,46.3,40.9,33.3,92,66,20,30.13,30.04,3,0,6,0.00
2013-10-5,81.6,57.9,43.7,43.9,36.6,30.3,81,51,18,30.18,30.08,3,0,5,0.00
2013-10-6,84.0,57.4,42.5,46.1,37.2,31.5,82,54,18,30.11,30.01,5,0,5,0.00
2013-10-7,67.1,54.5,42.5,50.0,42.8,36.1,79,66,43,30.01,29.94,5,0,9,0.00
2013-10-8,66.6,55.0,48.2,48.9,45.0,43.1,84,70,50,29.98,29.82,7,1,11,0.00
2013-10-9,65.1,54.3,47.0,45.2,43.0,41.1,84,67,44,29.81,29.69,7,1,14,0.00
2013-10-10,66.6,50.1,40.7,47.4,42.7,38.5,92,77,47,29.98,29.78,6,0,7,0.00
2013-10-11,59.0,46.7,38.2,50.0,42.8,36.4,95,87,70,30.08,29.99,6,0,6,0.00
2013-10-12,61.9,46.9,36.8,47.2,41.7,35.0,95,83,55,30.03,29.97,9,1,12,0.00
2013-10-13,69.1,49.7,38.1,49.0,42.2,36.3,94,78,44,30.05,29.97,6,0,6,0.00
2013-10-14,73.6,52.2,40.4,46.4,41.2,38.0,92,71,29,30.11,30.03,5,0,6,0.00
2013-10-15,74.7,54.5,42.3,45.5,40.3,37.7,87,64,27,30.04,29.98,4,0,5,0.00
2013-10-16,74.6,54.6,41.2,43.5,37.8,33.3,82,59,23,30.07,29.98,6,0,8,0.00
2013-10-17,75.2,52.9,41.2,47.3,39.8,34.3,91,65,27,30.09,30.00,4,0,7,0.00
2013-10-18,64.2,48.7,39.7,49.5,43.1,38.1,94,83,50,30.04,29.99,5,0,7,0.00
2013-10-19,70.3,49.4,40.2,53.0,43.2,38.1,93,81,49,30.08,30.03,5,0,5,0.00
2013-10-20,61.4,46.1,38.8,51.1,41.8,36.7,94,86,63,30.05,29.96,4,0,7,0.00
2013-10-21,52.1,45.6,39.2,49.0,43.7,37.7,95,93,85,30.00,29.94,4,0,5,0.00
2013-10-22,53.2,44.3,38.1,49.8,42.8,36.8,96,94,88,30.02,29.96,5,0,6,0.00
2013-10-23,57.3,44.9,39.0,53.8,43.0,37.4,96,93,83,29.98,29.94,4,0,9,0.00
2013-10-24,55.9,47.1,44.2,50.1,45.1,42.9,96,93,80,30.10,29.96,2,0,4,0.01
2013-10-25,60.5,51.3,47.0,50.0,47.0,45.2,94,86,66,30.18,30.11,4,0,8,0.00
2013-10-26,68.1,47.7,38.3,52.1,42.9,36.7,95,85,45,30.15,30.06,4,0,6,0.00
2013-10-27,56.6,46.2,39.5,48.6,43.2,37.9,95,90,73,30.05,29.71,10,1,11,0.00
2013-10-28,57.1,49.3,41.8,47.5,45.0,39.4,95,86,66,29.79,29.69,4,1,16,0.00
2013-10-29,56.9,44.8,37.4,48.6,41.6,35.8,95,89,70,30.05,29.82,4,0,6,0.00
2013-10-30,59.0,44.3,36.3,49.0,40.7,34.7,95,88,63,30.16,30.05,4,0,7,0.00
2013-10-31,65.1,46.6,38.0,51.2,42.1,36.2,95,86,58,30.18,30.09,5,0,7,0.00
2013-11-1,67.9,51.0,42.4,51.4,44.4,40.8,95,81,46,30.14,30.03,5,0,5,0.00
2013-11-2,60.9,49.3,42.4,52.7,44.8,40.3,94,85,67,30.07,30.00,9,1,16,0.00
2013-11-3,53.5,48.5,44.7,43.0,39.2,35.7,77,70,60,30.14,30.00,11,2,15,0.00
2013-11-4,58.7,49.3,45.1,43.6,39.1,35.9,85,69,48,30.13,29.98,5,1,13,0.00
2013-11-5,63.8,47.5,36.9,52.3,42.7,34.5,93,85,57,30.23,30.14,5,0,9,0.00
2013-11-6,68.8,53.5,45.5,52.4,46.8,43.4,95,80,42,30.24,30.15,3,0,4,0.00
2013-11-7,62.9,53.0,44.6,54.1,48.7,42.1,93,86,71,30.19,30.12,4,0,7,0.00
2013-11-8,59.6,50.1,41.3,51.3,47.0,39.4,95,89,64,30.13,29.99,4,0,5,0.00
2013-11-9,68.6,51.2,40.5,51.9,44.0,38.9,100,79,43,30.01,29.96,4,0,7,0.00
2013-11-10,59.0,48.3,41.0,49.9,44.5,38.9,94,87,71,30.09,29.98,4,0,7,0.00
2013-11-11,59.0,49.9,44.2,49.8,46.3,42.9,99,88,71,30.12,30.05,3,0,4,0.00
2013-11-12,64.7,55.8,51.3,54.3,50.0,46.9,92,81,68,30.28,30.15,1,0,9,0.00
2013-11-13,64.3,50.4,43.4,55.3,47.8,41.8,95,91,71,30.29,30.13,6,0,7,0.00
2013-11-14,57.5,51.1,47.4,51.1,48.3,44.6,95,90,74,30.15,29.99,6,0,9,0.01
2013-11-15,55.8,46.7,41.1,44.6,41.8,39.2,94,84,64,29.97,29.79,6,0,10,0.00
2013-11-16,55.4,47.9,43.2,50.0,43.5,38.9,93,85,77,29.92,29.82,2,0,10,0.00
2013-11-17,57.3,44.7,37.4,46.8,40.8,35.8,95,87,60,30.08,29.94,3,0,6,0.00
2013-11-18,55.6,44.8,36.2,47.8,41.1,34.4,94,87,74,30.12,30.04,3,0,6,0.07
2013-11-19,54.9,51.9,48.8,53.8,50.6,47.2,96,95,94,30.03,29.87,2,0,5,1.48
2013-11-20,55.5,52.3,48.3,54.4,51.0,46.7,96,96,94,29.91,29.85,3,0,6,0.13
2013-11-21,58.8,48.3,40.6,48.9,42.3,25.0,96,82,42,30.04,29.90,2,0,4,0.00
2013-11-22,67.4,46.2,34.4,43.3,34.6,22.8,90,68,25,30.08,29.96,3,0,3,0.00
2013-11-23,61.5,45.4,36.1,40.1,32.5,21.9,86,62,33,30.09,29.95,3,0,7,0.00
2013-11-24,62.1,41.4,31.2,47.9,35.6,28.9,93,82,39,30.24,30.08,5,0,6,0.00
2013-11-25,59.9,42.9,34.3,45.1,38.7,32.8,95,86,54,30.32,30.24,2,0,4,0.00
2013-11-26,60.8,45.0,36.8,46.4,40.1,35.2,95,84,52,30.26,30.04,1,0,3,0.00
2013-11-27,66.7,48.1,38.1,47.2,40.8,36.3,93,78,39,30.02,29.80,4,0,6,0.00
2013-11-28,67.2,48.1,40.2,47.6,41.3,38.1,92,79,43,30.06,29.85,1,0,3,0.00
2013-11-29,60.8,46.4,37.8,52.1,42.3,35.7,94,86,57,30.22,30.06,1,0,7,0.00
2013-11-30,61.3,46.8,38.6,53.1,44.0,37.0,95,90,71,30.29,30.20,3,0,4,0.00
2013-12-1,60.7,47.5,39.3,52.5,44.8,37.7,99,91,67,30.35,30.27,3,0,5,0.01
2013-12-2,55.1,51.8,48.4,53.1,50.1,47.0,95,94,88,30.29,29.99,3,0,6,0.09
2013-12-3,49.7,44.0,39.8,45.1,37.9,33.5,94,80,58,29.98,29.91,7,1,14,0.00
2013-12-4,47.5,36.5,28.6,34.8,31.0,26.6,93,81,52,30.07,29.99,4,0,7,0.00
2013-12-5,46.3,32.5,25.8,31.8,27.3,23.8,93,83,48,30.17,30.09,2,0,5,0.01
2013-12-6,45.3,32.2,26.3,44.0,29.9,24.0,99,91,75,30.16,29.91,3,0,5,0.35
2013-12-7,41.1,34.3,27.0,36.3,31.1,24.5,94,88,61,30.27,29.95,5,0,7,0.01
2013-12-8,44.1,30.1,25.3,29.9,25.6,23.1,92,84,46,30.32,30.25,5,0,6,0.00
2013-12-9,48.9,31.2,25.6,38.0,26.8,22.8,92,85,51,30.41,30.32,2,0,3,0.00
2013-12-10,52.2,32.7,27.4,37.4,29.3,25.6,93,88,48,30.41,30.22,1,0,4,0.00
2013-12-11,56.2,34.9,28.7,37.1,29.7,26.9,94,84,41,30.24,30.18,2,0,3,0.00
2013-12-12,56.6,37.9,30.7,44.4,32.7,28.7,93,83,40,30.25,30.19,3,0,8,0.00
2013-12-13,55.4,41.2,36.7,46.7,38.9,34.9,95,92,69,30.34,30.25,1,0,5,0.00
2013-12-14,56.5,41.1,33.9,47.9,39.0,32.4,95,92,73,30.39,30.31,2,0,6,0.00
2013-12-15,55.9,39.3,31.7,48.1,37.2,30.2,96,93,68,30.36,30.25,1,0,2,0.00
2013-12-16,63.9,43.4,35.6,49.2,38.8,34.0,95,85,44,30.24,30.13,2,0,3,0.00
2013-12-17,62.7,42.7,37.7,48.7,39.0,35.6,93,87,57,30.16,30.06,1,0,2,0.00
2013-12-18,52.1,42.3,35.9,47.2,40.2,34.3,95,92,80,30.05,29.88,4,0,10,0.00
2013-12-19,49.7,44.6,41.7,42.2,37.3,32.6,89,75,59,29.95,29.81,9,1,18,0.00
2013-12-20,52.2,37.1,30.4,41.5,32.4,27.9,92,84,57,30.07,29.99,4,0,7,0.00
2013-12-21,52.9,47.0,40.7,48.4,44.8,38.8,95,92,83,30.13,30.05,5,0,11,0.00
2013-12-22,62.9,44.2,36.4,50.2,40.9,34.8,95,89,62,30.26,30.13,1,0,2,0.01
2013-12-23,59.8,44.4,38.7,49.2,41.1,37.1,95,89,67,30.41,30.27,1,0,3,0.00
2013-12-24,62.9,44.0,39.7,51.4,41.3,38.1,95,91,66,30.35,30.23,1,0,2,0.00
2013-12-25,62.0,41.4,34.4,49.0,38.4,32.9,95,90,61,30.30,30.21,0,0,2,0.00
2013-12-26,65.5,41.6,34.1,45.9,36.0,31.9,93,83,38,30.25,30.16,1,0,2,0.00
2013-12-27,54.7,41.5,37.4,45.0,36.6,32.9,92,83,64,30.23,30.16,1,0,1,0.00
2013-12-28,60.0,41.0,33.5,46.3,37.8,32.0,95,89,55,30.17,30.06,1,0,2,0.01
2013-12-29,66.0,43.0,35.7,40.8,33.7,26.6,90,73,23,30.17,30.07,4,0,4,0.00
2013-12-30,62.9,44.5,33.6,42.1,35.2,29.0,92,72,36,30.24,30.16,2,0,3,0.00
2013-12-31,53.9,44.4,38.2,45.7,40.8,35.8,93,87,71,30.27,30.18,5,0,7,0.00
2014-1-1,58.4,40.0,34.2,48.6,37.2,32.6,95,90,65,30.20,30.13,3,0,3,0.00
2014-1-2,61.6,43.1,37.1,47.6,39.1,35.5,94,87,44,30.17,30.07,2,0,7,0.00